Time;durP1;ratioP1;P1;durP2;ratioP2;P2;SDS_P1;SDS_P2;PMS_P1;PMS_P2;Temp;Humidity;BMP_temperature;BMP_pressure;BME280_temperature;BME280_humidity;BME280_pressure;Samples;Min_cycle;Max_cycle;Signal;HPM_P1;HPM_P2
2023/01/22 00:01:49;;;;;;;7.87;5.30;;;;;;;2.29;100.00;103273.72;5008933;28;20557;-74
2023/01/22 00:04:15;;;;;;;8.07;5.37;;;;;;;2.28;100.00;103273.56;5009139;28;20211;-75
2023/01/22 00:06:40;;;;;;;8.33;5.60;;;;;;;2.28;100.00;103266.91;5008140;28;20176;-75
2023/01/22 00:09:06;;;;;;;8.37;5.70;;;;;;;2.29;100.00;103271.19;5003191;28;20225;-74
2023/01/22 00:11:31;;;;;;;10.43;5.63;;;;;;;2.30;100.00;103264.50;5002626;28;20278;-74
2023/01/22 00:13:56;;;;;;;9.70;4.93;;;;;;;2.31;100.00;103261.22;5003266;28;20212;-74
2023/01/22 00:16:22;;;;;;;7.90;5.00;;;;;;;2.31;100.00;103266.28;5002531;28;20241;-74
2023/01/22 00:18:47;;;;;;;6.67;5.00;;;;;;;2.29;100.00;103260.22;5013331;28;20207;-75
2023/01/22 00:21:13;;;;;;;7.17;5.10;;;;;;;2.27;100.00;103259.16;5010897;28;20194;-75
2023/01/22 00:23:39;;;;;;;6.30;4.70;;;;;;;2.27;100.00;103251.59;5014575;28;20265;-75
2023/01/22 00:26:10;;;;;;;8.73;5.30;;;;;;;2.27;100.00;103252.50;5009516;28;20186;-75
2023/01/22 00:28:36;;;;;;;7.47;5.17;;;;;;;2.25;100.00;103253.97;5025452;28;20191;-75
2023/01/22 00:31:04;;;;;;;7.60;4.60;;;;;;;2.27;100.00;103249.06;5009608;28;20203;-75
2023/01/22 00:33:29;;;;;;;7.73;4.83;;;;;;;2.27;100.00;103244.91;5005567;28;20294;-75
2023/01/22 00:35:56;;;;;;;8.13;4.60;;;;;;;2.28;100.00;103234.03;5027266;28;20353;-74
2023/01/22 00:38:21;;;;;;;6.50;4.50;;;;;;;2.28;100.00;103244.16;5008702;28;20234;-74
2023/01/22 00:40:47;;;;;;;7.30;4.30;;;;;;;2.27;100.00;103244.91;5010211;28;20191;-75
2023/01/22 00:43:12;;;;;;;5.00;3.87;;;;;;;2.30;100.00;103241.78;5008332;28;20219;-75
2023/01/22 00:45:38;;;;;;;7.17;4.20;;;;;;;2.31;100.00;103236.84;5005586;28;20271;-74
2023/01/22 00:48:04;;;;;;;4.80;3.67;;;;;;;2.32;100.00;103235.19;5013050;28;20559;-74
2023/01/22 00:50:30;;;;;;;9.83;4.30;;;;;;;2.31;100.00;103231.81;5009238;28;20210;-74
2023/01/22 00:52:56;;;;;;;8.20;4.60;;;;;;;2.31;100.00;103226.75;5008138;28;20215;-75
2023/01/22 00:55:21;;;;;;;6.00;3.60;;;;;;;2.33;100.00;103234.44;5003184;28;20187;-75
2023/01/22 00:57:46;;;;;;;7.10;4.17;;;;;;;2.33;100.00;103235.34;5002890;28;20195;-75
2023/01/22 01:00:16;;;;;;;7.27;3.40;;;;;;;2.36;100.00;103240.69;5020152;28;20197;-75
2023/01/22 01:05:30;;;;;;;8.83;3.83;;;;;;;2.36;100.00;103239.78;5001547;28;20187;-75
2023/01/22 01:07:55;;;;;;;6.03;4.13;;;;;;;2.36;100.00;103234.72;5001498;28;20188;-75
2023/01/22 01:10:20;;;;;;;6.30;3.33;;;;;;;2.36;100.00;103237.25;5005146;28;20215;-75
2023/01/22 01:12:46;;;;;;;6.77;4.13;;;;;;;2.36;100.00;103225.53;5009058;28;20290;-75
2023/01/22 01:15:11;;;;;;;5.47;4.00;;;;;;;2.37;100.00;103244.09;5013498;28;20225;-75
2023/01/22 01:17:37;;;;;;;7.07;4.10;;;;;;;2.35;100.00;103236.34;5013892;28;20230;-74
2023/01/22 01:20:03;;;;;;;4.87;3.53;;;;;;;2.38;100.00;103235.75;5012672;28;20783;-75
2023/01/22 01:22:28;;;;;;;5.33;3.93;;;;;;;2.35;100.00;103230.44;5005565;28;20206;-74
2023/01/22 01:24:54;;;;;;;5.17;4.13;;;;;;;2.37;100.00;103224.75;5012142;28;20274;-75
2023/01/22 01:27:19;;;;;;;6.47;4.20;;;;;;;2.36;100.00;103232.19;5010504;28;20245;-75
2023/01/22 01:29:45;;;;;;;8.07;4.37;;;;;;;2.34;100.00;103234.59;5011538;28;20386;-74
2023/01/22 01:32:10;;;;;;;5.73;4.10;;;;;;;2.31;100.00;103224.22;5006676;28;20192;-75
2023/01/22 01:34:36;;;;;;;5.30;3.97;;;;;;;2.32;100.00;103231.06;5026570;28;20290;-75
2023/01/22 01:37:02;;;;;;;8.17;4.53;;;;;;;2.33;100.00;103226.88;5010366;28;20201;-74
2023/01/22 01:39:27;;;;;;;7.10;3.93;;;;;;;2.35;100.00;103225.38;5007988;28;20656;-75
2023/01/22 01:41:53;;;;;;;6.93;4.77;;;;;;;2.32;100.00;103225.09;5010346;28;20192;-75
2023/01/22 01:44:22;;;;;;;6.40;4.27;;;;;;;2.33;100.00;103221.81;5021935;28;20719;-75
2023/01/22 01:47:04;;;;;;;6.17;4.50;;;;;;;2.33;100.00;103217.66;5010241;28;20187;-75
2023/01/22 01:49:48;;;;;;;7.47;4.27;;;;;;;2.32;100.00;103220.03;4998377;28;20211;-75
2023/01/22 01:52:15;;;;;;;7.17;5.13;;;;;;;2.27;100.00;103217.13;5005168;28;20218;-75
2023/01/22 01:54:44;;;;;;;6.43;4.90;;;;;;;2.25;100.00;103226.19;5000016;28;20188;-75
2023/01/22 01:57:15;;;;;;;8.13;4.70;;;;;;;2.27;100.00;103223.78;5000909;28;20187;-76
2023/01/22 01:59:43;;;;;;;8.07;4.90;;;;;;;2.28;100.00;103223.03;5003383;28;20913;-75
2023/01/22 02:02:09;;;;;;;10.60;5.17;;;;;;;2.27;100.00;103226.31;5015207;28;20197;-75
2023/01/22 02:04:35;;;;;;;9.77;5.60;;;;;;;2.24;100.00;103223.50;5013009;28;20210;-75
2023/01/22 02:07:02;;;;;;;6.47;5.17;;;;;;;2.22;100.00;103223.41;5001227;28;20213;-75
2023/01/22 02:09:29;;;;;;;6.90;4.70;;;;;;;2.23;100.00;103226.78;5002769;28;20299;-75
2023/01/22 02:11:54;;;;;;;9.10;5.53;;;;;;;2.23;100.00;103229.31;5012311;28;20285;-75
2023/01/22 02:14:28;;;;;;;7.60;5.13;;;;;;;2.22;100.00;103220.88;5011548;28;20310;-75
2023/01/22 02:17:10;;;;;;;6.47;5.00;;;;;;;2.23;100.00;103219.22;5007596;28;20183;-75
2023/01/22 02:19:36;;;;;;;9.00;6.00;;;;;;;2.18;100.00;103220.44;5004202;28;20221;-75
2023/01/22 02:22:02;;;;;;;7.20;5.10;;;;;;;2.17;100.00;103219.56;5017234;28;20206;-75
2023/01/22 02:24:30;;;;;;;7.50;5.40;;;;;;;2.14;100.00;103220.91;5014280;28;20245;-75
2023/01/22 02:26:55;;;;;;;7.53;5.17;;;;;;;2.14;100.00;103216.75;5016910;28;20282;-75
2023/01/22 02:29:21;;;;;;;8.70;5.53;;;;;;;2.17;100.00;103217.03;5022454;28;20291;-75
2023/01/22 02:31:47;;;;;;;7.90;5.80;;;;;;;2.17;100.00;103214.50;5021917;28;20566;-76
2023/01/22 02:34:12;;;;;;;11.43;6.03;;;;;;;2.17;100.00;103218.66;5006829;28;20268;-75
2023/01/22 02:36:39;;;;;;;8.67;5.90;;;;;;;2.15;100.00;103215.13;5012318;28;20241;-75
2023/01/22 02:39:05;;;;;;;9.60;5.57;;;;;;;2.16;100.00;103209.31;5008201;28;20193;-75
2023/01/22 02:41:31;;;;;;;8.27;5.73;;;;;;;2.14;100.00;103201.59;5008813;28;20652;-75
2023/01/22 02:43:57;;;;;;;6.63;5.30;;;;;;;2.16;100.00;103214.38;5002327;28;20270;-75
2023/01/22 02:46:24;;;;;;;10.30;6.13;;;;;;;2.14;100.00;103209.16;5005245;28;20195;-75
2023/01/22 02:48:50;;;;;;;10.17;5.50;;;;;;;2.13;100.00;103207.41;5021625;28;20199;-75
2023/01/22 02:51:16;;;;;;;8.77;5.53;;;;;;;2.14;100.00;103209.16;5013869;28;20194;-75
2023/01/22 02:53:43;;;;;;;8.03;5.60;;;;;;;2.16;100.00;103201.72;5030909;28;20293;-75
2023/01/22 02:56:09;;;;;;;7.33;5.97;;;;;;;2.15;100.00;103199.97;5005544;28;20340;-75
2023/01/22 02:58:36;;;;;;;14.23;9.10;;;;;;;2.15;100.00;103197.44;5004310;28;20183;-75
2023/01/22 03:01:19;;;;;;;8.30;6.50;;;;;;;2.18;100.00;103196.06;5005911;28;20194;-75
2023/01/22 03:03:46;;;;;;;7.40;5.93;;;;;;;2.20;100.00;103193.69;5005475;28;20207;-75
2023/01/22 03:06:14;;;;;;;9.37;6.07;;;;;;;2.19;100.00;103195.31;5000656;28;20202;-75
2023/01/22 03:08:43;;;;;;;7.33;5.43;;;;;;;2.19;100.00;103192.78;5006393;28;20281;-75
2023/01/22 03:11:10;;;;;;;8.97;6.03;;;;;;;2.20;100.00;103199.59;5011313;28;20186;-76
2023/01/22 03:21:48;;;;;;;10.07;5.73;;;;;;;2.25;100.00;103192.47;5011552;28;20735;-75
2023/01/22 03:24:13;;;;;;;10.73;6.20;;;;;;;2.23;100.00;103187.25;5004851;28;20211;-75
2023/01/22 03:26:39;;;;;;;9.80;6.43;;;;;;;2.24;100.00;103191.56;5006379;28;20556;-75
2023/01/22 03:29:05;;;;;;;7.93;6.27;;;;;;;2.25;100.00;103184.88;5009203;28;20214;-75
2023/01/22 03:31:30;;;;;;;9.13;6.20;;;;;;;2.18;100.00;103180.91;5004576;28;20209;-75
2023/01/22 03:33:56;;;;;;;9.40;5.80;;;;;;;2.23;100.00;103182.22;5002561;28;20219;-75
2023/01/22 03:36:22;;;;;;;8.43;6.13;;;;;;;2.20;100.00;103194.56;5006571;28;20209;-75
2023/01/22 03:38:50;;;;;;;7.90;6.20;;;;;;;2.22;100.00;103188.03;4991581;28;20192;-75
2023/01/22 03:41:19;;;;;;;9.37;5.80;;;;;;;2.23;100.00;103199.00;5007592;28;20191;-75
2023/01/22 03:43:46;;;;;;;8.80;6.30;;;;;;;2.20;100.00;103192.03;5014754;28;20245;-75
2023/01/22 03:46:19;;;;;;;12.10;6.57;;;;;;;2.21;100.00;103193.78;5009380;28;20188;-75
2023/01/22 03:48:51;;;;;;;12.70;6.27;;;;;;;2.20;100.00;103196.22;5016244;28;20191;-75
2023/01/22 03:51:17;;;;;;;13.90;5.90;;;;;;;2.21;100.00;103191.28;5017246;28;20281;-75
2023/01/22 03:53:43;;;;;;;13.77;6.40;;;;;;;2.21;100.00;103190.41;5028593;28;20302;-75
2023/01/22 03:56:15;;;;;;;9.10;6.00;;;;;;;2.22;100.00;103190.53;5009260;28;20198;-75
2023/01/22 03:58:41;;;;;;;10.57;6.53;;;;;;;2.26;100.00;103196.75;5009402;28;20202;-74
2023/01/22 04:01:10;;;;;;;10.03;6.13;;;;;;;2.24;100.00;103191.56;5006868;28;20613;-75
2023/01/22 04:03:36;;;;;;;9.87;5.90;;;;;;;2.28;100.00;103190.19;5008043;28;20635;-75
2023/01/22 04:06:04;;;;;;;10.50;5.73;;;;;;;2.28;100.00;103191.09;5006946;28;20194;-75
2023/01/22 04:08:32;;;;;;;11.83;5.90;;;;;;;2.31;100.00;103190.47;5019303;28;20195;-75
2023/01/22 04:11:00;;;;;;;8.43;5.90;;;;;;;2.31;100.00;103188.84;5009446;28;20238;-75
2023/01/22 04:13:28;;;;;;;7.80;5.80;;;;;;;2.33;100.00;103191.47;5011173;28;20903;-75
2023/01/22 04:15:54;;;;;;;10.27;5.67;;;;;;;2.36;100.00;103185.09;5010571;28;20219;-75
2023/01/22 04:18:49;;;;;;;11.10;5.93;;;;;;;2.36;100.00;103190.13;4988684;28;20748;-75
2023/01/22 04:21:25;;;;;;;11.20;5.60;;;;;;;2.37;100.00;103183.44;5008049;28;20669;-75
2023/01/22 04:23:56;;;;;;;10.90;5.63;;;;;;;2.38;100.00;103181.03;5012777;28;20260;-75
2023/01/22 04:26:21;;;;;;;10.40;6.17;;;;;;;2.40;100.00;103186.25;5016338;28;20660;-75
2023/01/22 04:28:47;;;;;;;11.37;5.83;;;;;;;2.40;100.00;103178.66;5005403;28;20226;-75
2023/01/22 04:31:13;;;;;;;11.50;5.70;;;;;;;2.43;100.00;103187.38;5010503;28;20557;-75
2023/01/22 04:33:57;;;;;;;7.47;5.50;;;;;;;2.45;100.00;103185.00;5020814;28;20708;-75
2023/01/22 04:36:27;;;;;;;11.17;5.77;;;;;;;2.44;100.00;103181.56;5010713;28;20195;-75
2023/01/22 04:38:53;;;;;;;10.77;5.23;;;;;;;2.48;100.00;103181.09;5012834;28;20688;-75
2023/01/22 04:41:18;;;;;;;9.07;5.77;;;;;;;2.52;100.00;103177.22;5010253;28;20263;-75
2023/01/22 04:43:44;;;;;;;10.50;5.17;;;;;;;2.52;100.00;103178.09;5008315;28;20385;-75
2023/01/22 04:46:09;;;;;;;9.33;5.40;;;;;;;2.52;100.00;103180.63;5010446;28;20190;-75
2023/01/22 04:48:35;;;;;;;9.60;5.33;;;;;;;2.53;100.00;103184.91;5005725;28;20184;-75
2023/01/22 04:51:01;;;;;;;9.53;5.37;;;;;;;2.54;100.00;103180.75;5013711;28;20225;-74
2023/01/22 04:53:29;;;;;;;9.00;5.43;;;;;;;2.52;100.00;103177.22;5006077;28;20216;-74
2023/01/22 04:55:54;;;;;;;9.57;5.47;;;;;;;2.54;100.00;103180.75;5009572;28;20191;-75
2023/01/22 04:58:20;;;;;;;10.27;5.43;;;;;;;2.53;100.00;103177.34;5007602;28;20834;-75
2023/01/22 05:00:46;;;;;;;13.27;5.43;;;;;;;2.55;100.00;103169.91;5008652;28;20238;-75
2023/01/22 05:03:11;;;;;;;9.10;5.20;;;;;;;2.56;100.00;103170.03;5009190;28;20742;-75
2023/01/22 05:05:37;;;;;;;9.23;5.33;;;;;;;2.57;100.00;103165.88;5020088;28;20195;-75
2023/01/22 05:08:03;;;;;;;10.00;5.37;;;;;;;2.57;100.00;103171.81;5018644;28;20537;-75
2023/01/22 05:10:30;;;;;;;10.17;5.73;;;;;;;2.57;100.00;103170.94;5003985;28;20230;-76
2023/01/22 05:12:56;;;;;;;9.20;4.97;;;;;;;2.56;100.00;103167.50;5025518;28;20273;-76
2023/01/22 05:15:23;;;;;;;11.57;5.67;;;;;;;2.55;100.00;103167.38;5007776;28;20217;-75
2023/01/22 05:17:51;;;;;;;11.60;5.30;;;;;;;2.57;100.00;103171.81;5003394;28;20286;-75
2023/01/22 05:20:16;;;;;;;12.00;5.03;;;;;;;2.61;100.00;103158.69;5001158;28;20188;-75
2023/01/22 05:22:42;;;;;;;8.50;5.00;;;;;;;2.60;100.00;103161.97;5004787;28;20210;-75
2023/01/22 05:25:08;;;;;;;10.17;5.07;;;;;;;2.60;100.00;103169.56;5015747;28;20190;-75
2023/01/22 05:27:34;;;;;;;9.87;5.97;;;;;;;2.59;100.00;103162.72;5012826;28;20647;-75
2023/01/22 05:30:06;;;;;;;9.97;5.80;;;;;;;2.60;100.00;103173.72;5011296;28;20210;-75
2023/01/22 05:32:45;;;;;;;10.47;5.60;;;;;;;2.59;100.00;103170.31;5019673;28;20246;-75
2023/01/22 05:35:10;;;;;;;12.43;5.27;;;;;;;2.58;100.00;103172.72;5007536;28;20218;-74
2023/01/22 05:37:37;;;;;;;7.93;5.30;;;;;;;2.60;100.00;103177.13;5004919;28;20191;-74
2023/01/22 05:40:05;;;;;;;7.50;5.17;;;;;;;2.61;100.00;103185.59;5008234;28;20190;-74
2023/01/22 05:42:33;;;;;;;9.17;5.77;;;;;;;2.60;100.00;103187.25;5004966;28;20242;-74
2023/01/22 05:44:59;;;;;;;8.43;5.47;;;;;;;2.60;100.00;103181.28;5001710;28;21446;-74
2023/01/22 05:47:25;;;;;;;7.87;5.80;;;;;;;2.61;100.00;103185.59;5024277;28;20283;-74
2023/01/22 05:50:16;;;;;;;10.30;5.50;;;;;;;2.58;100.00;103185.34;4995381;28;20231;-74
2023/01/22 05:52:43;;;;;;;9.40;5.23;;;;;;;2.57;100.00;103179.38;5006989;28;20599;-75
2023/01/22 05:55:08;;;;;;;9.07;5.53;;;;;;;2.58;100.00;103176.09;5011187;28;20191;-75
2023/01/22 05:57:40;;;;;;;14.10;5.73;;;;;;;2.58;100.00;103182.81;5003994;28;20206;-74
2023/01/22 06:00:07;;;;;;;10.00;5.57;;;;;;;2.59;100.00;103177.91;5010735;28;20193;-75
2023/01/22 06:02:41;;;;;;;10.60;6.10;;;;;;;2.60;100.00;103183.81;5003937;28;20878;-75
2023/01/22 06:05:07;;;;;;;8.80;5.50;;;;;;;2.60;100.00;103184.72;5008945;28;20222;-74
2023/01/22 06:07:33;;;;;;;12.10;5.50;;;;;;;2.61;100.00;103186.50;5001437;28;20203;-75
2023/01/22 06:09:59;;;;;;;11.70;5.87;;;;;;;2.64;100.00;103178.28;5004384;28;20248;-75
2023/01/22 06:12:26;;;;;;;11.90;5.70;;;;;;;2.64;100.00;103184.25;4998900;28;20257;-75
2023/01/22 06:14:54;;;;;;;13.07;5.37;;;;;;;2.66;100.00;103186.91;5000694;28;20196;-75
2023/01/22 06:17:20;;;;;;;9.23;5.83;;;;;;;2.68;100.00;103183.78;5017795;28;20221;-75
2023/01/22 06:19:53;;;;;;;8.47;5.03;;;;;;;2.71;100.00;103175.56;5014614;28;20561;-75
2023/01/22 06:22:19;;;;;;;10.80;5.13;;;;;;;2.73;100.00;103187.59;4999941;28;20194;-74
2023/01/22 06:24:49;;;;;;;10.20;5.13;;;;;;;2.72;100.00;103189.97;5030671;28;20531;-74
2023/01/22 06:27:17;;;;;;;11.03;5.10;;;;;;;2.73;100.00;103182.53;5015201;28;20218;-75
2023/01/22 06:29:53;;;;;;;15.57;6.87;;;;;;;2.76;100.00;103184.44;5010736;28;20724;-75
2023/01/22 06:32:19;;;;;;;12.10;6.40;;;;;;;2.75;100.00;103181.00;5013971;28;20203;-75
2023/01/22 06:34:44;;;;;;;15.00;6.43;;;;;;;2.77;100.00;103187.13;4994539;28;20195;-75
2023/01/22 06:37:10;;;;;;;11.00;4.80;;;;;;;2.78;100.00;103190.50;5013713;28;20190;-75
2023/01/22 06:39:37;;;;;;;8.83;5.37;;;;;;;2.77;100.00;103191.28;5005311;28;20195;-75
2023/01/22 06:42:09;;;;;;;8.43;4.97;;;;;;;2.78;100.00;103186.34;5007550;28;20190;-75
2023/01/22 06:44:35;;;;;;;9.13;5.60;;;;;;;2.79;100.00;103190.66;5005220;28;20250;-75
2023/01/22 06:47:00;;;;;;;10.93;5.60;;;;;;;2.80;100.00;103191.56;5005317;28;20182;-75
2023/01/22 06:49:28;;;;;;;18.97;6.27;;;;;;;2.79;100.00;103190.66;5020239;28;20253;-76
2023/01/22 06:51:54;;;;;;;12.43;6.43;;;;;;;2.78;100.00;103193.94;5001221;28;20223;-75
2023/01/22 06:54:19;;;;;;;10.57;6.87;;;;;;;2.79;100.00;103200.75;5001320;28;20293;-75
2023/01/22 06:56:45;;;;;;;11.60;6.50;;;;;;;2.78;100.00;103191.41;5008447;28;20195;-75
2023/01/22 06:59:12;;;;;;;13.73;6.63;;;;;;;2.79;100.00;103203.28;4993176;28;20592;-75
2023/01/22 07:01:38;;;;;;;23.33;12.37;;;;;;;2.81;100.00;103213.56;5000989;28;20191;-74
2023/01/22 07:04:03;;;;;;;9.00;6.50;;;;;;;2.80;100.00;103209.25;5003845;28;20206;-75
2023/01/22 07:06:29;;;;;;;11.27;7.27;;;;;;;2.77;100.00;103206.44;4997413;28;20574;-75
2023/01/22 07:08:55;;;;;;;14.63;6.57;;;;;;;2.77;100.00;103209.88;4998892;28;20199;-74
2023/01/22 07:11:21;;;;;;;12.40;6.40;;;;;;;2.78;100.00;103214.16;4999187;28;20657;-75
2023/01/22 07:13:46;;;;;;;11.17;5.87;;;;;;;2.77;100.00;103220.00;5000552;28;20257;-75
2023/01/22 07:16:12;;;;;;;11.73;6.10;;;;;;;2.78;100.00;103221.75;5002519;28;20304;-75
2023/01/22 07:18:37;;;;;;;8.93;5.57;;;;;;;2.79;100.00;103228.59;5004424;28;20277;-75
2023/01/22 07:21:04;;;;;;;8.80;5.20;;;;;;;2.80;100.00;103235.41;5002187;28;20191;-75
2023/01/22 07:23:30;;;;;;;13.07;5.20;;;;;;;2.80;100.00;103239.59;5005517;28;20226;-75
2023/01/22 07:25:56;;;;;;;11.07;4.93;;;;;;;2.81;100.00;103237.19;5001868;28;20187;-75
2023/01/22 07:28:22;;;;;;;9.23;5.10;;;;;;;2.85;100.00;103241.75;5005269;28;20644;-75
2023/01/22 07:30:47;;;;;;;9.83;4.87;;;;;;;2.86;100.00;103235.97;5002407;28;20219;-75
2023/01/22 07:33:14;;;;;;;11.07;5.60;;;;;;;2.87;100.00;103244.44;5004125;28;20218;-75
2023/01/22 07:35:39;;;;;;;7.77;4.40;;;;;;;2.89;100.00;103237.88;5002647;28;20191;-75
2023/01/22 07:38:06;;;;;;;13.70;5.57;;;;;;;2.89;100.00;103242.94;5003867;28;20188;-75
2023/01/22 07:40:31;;;;;;;8.47;4.67;;;;;;;2.91;100.00;103242.31;5007157;28;20198;-75
2023/01/22 07:42:57;;;;;;;9.80;4.77;;;;;;;2.93;100.00;103245.88;5004357;28;20588;-75
2023/01/22 07:45:24;;;;;;;11.70;7.07;;;;;;;2.94;100.00;103247.63;5003937;28;20191;-75
2023/01/22 07:47:57;;;;;;;10.73;6.90;;;;;;;2.93;100.00;103245.88;5003068;28;20254;-75
2023/01/22 07:50:29;;;;;;;12.47;7.87;;;;;;;2.94;100.00;103249.28;5001767;28;20226;-75
2023/01/22 07:52:55;;;;;;;19.53;10.47;;;;;;;2.91;100.00;103249.00;4999758;28;20219;-75
2023/01/22 07:55:21;;;;;;;28.07;13.87;;;;;;;2.89;100.00;103251.41;5002277;28;20188;-75
2023/01/22 07:57:46;;;;;;;26.17;13.10;;;;;;;2.91;100.00;103257.50;5004309;28;20214;-74
2023/01/22 08:00:14;;;;;;;23.90;11.90;;;;;;;2.90;100.00;103260.75;5001727;28;20657;-75
2023/01/22 08:02:41;;;;;;;25.50;12.27;;;;;;;2.89;100.00;103256.47;5006047;28;20206;-76
2023/01/22 08:05:07;;;;;;;25.50;12.10;;;;;;;2.91;100.00;103254.06;5002330;28;20187;-74
2023/01/22 08:07:33;;;;;;;19.53;9.47;;;;;;;2.92;100.00;103260.91;5005897;28;20219;-76
2023/01/22 08:09:58;;;;;;;17.77;11.93;;;;;;;2.93;100.00;103257.63;5002879;28;21036;-74
2023/01/22 08:12:24;;;;;;;15.73;9.67;;;;;;;2.93;100.00;103262.66;5001994;28;20621;-74
2023/01/22 08:14:49;;;;;;;10.63;6.53;;;;;;;2.94;100.00;103267.88;5003591;28;20663;-74
2023/01/22 08:17:15;;;;;;;13.70;6.97;;;;;;;2.93;100.00;103268.63;5003978;28;20236;-74
2023/01/22 08:19:40;;;;;;;29.30;15.53;;;;;;;2.95;100.00;103264.59;4998545;28;20294;-76
2023/01/22 08:22:06;;;;;;;21.97;11.63;;;;;;;2.98;100.00;103272.47;5005345;28;20235;-76
2023/01/22 08:24:33;;;;;;;23.07;11.83;;;;;;;2.99;100.00;103273.34;5004607;28;20208;-77
2023/01/22 08:26:58;;;;;;;20.40;11.93;;;;;;;3.00;100.00;103270.06;5002375;28;20591;-77
2023/01/22 08:29:24;;;;;;;29.83;16.47;;;;;;;3.00;100.00;103273.50;5007053;28;20214;-77
2023/01/22 08:31:49;;;;;;;21.00;13.40;;;;;;;3.03;100.00;103277.94;5008418;28;20859;-77
2023/01/22 08:34:16;;;;;;;16.10;7.77;;;;;;;3.04;100.00;103279.72;5001246;28;20265;-77
2023/01/22 08:36:41;;;;;;;14.20;7.03;;;;;;;3.03;100.00;103286.41;5004344;28;20810;-77
2023/01/22 08:39:09;;;;;;;19.60;8.50;;;;;;;3.08;100.00;103285.16;5004877;28;20270;-76
2023/01/22 08:41:35;;;;;;;22.37;9.60;;;;;;;3.11;100.00;103285.44;5000958;28;20323;-76
2023/01/22 08:44:00;;;;;;;16.60;7.83;;;;;;;3.15;100.00;103296.72;4996012;28;20257;-76
2023/01/22 08:46:25;;;;;;;17.80;9.37;;;;;;;3.19;100.00;103294.59;4999629;28;20191;-76
2023/01/22 08:48:51;;;;;;;18.33;6.97;;;;;;;3.22;100.00;103288.91;5002619;28;20774;-76
2023/01/22 08:51:17;;;;;;;9.87;3.80;;;;;;;3.28;100.00;103290.34;5004933;28;20599;-75
2023/01/22 08:53:42;;;;;;;7.33;2.67;;;;;;;3.35;100.00;103290.09;5001995;28;20221;-75
2023/01/22 08:56:08;;;;;;;8.93;3.20;;;;;;;3.45;100.00;103294.34;4999982;28;20278;-74
2023/01/22 08:58:33;;;;;;;9.20;3.30;;;;;;;3.51;100.00;103295.78;4998769;28;20242;-74
2023/01/22 09:00:58;;;;;;;8.50;2.80;;;;;;;3.58;100.00;103304.78;5002527;28;20183;-74
2023/01/22 09:03:24;;;;;;;6.07;2.10;;;;;;;3.62;100.00;103299.19;5001749;28;20214;-74
2023/01/22 09:05:49;;;;;;;4.67;2.17;;;;;;;3.68;100.00;103294.69;5007059;28;20199;-76
2023/01/22 09:08:15;;;;;;;8.23;2.30;;;;;;;3.72;100.00;103306.88;5001978;28;20724;-76
2023/01/22 09:10:42;;;;;;;6.87;2.70;;;;;;;3.75;100.00;103302.03;5004823;28;20204;-75
2023/01/22 09:13:08;;;;;;;10.87;2.57;;;;;;;3.76;100.00;103302.19;5003452;28;20257;-75
2023/01/22 09:15:33;;;;;;;6.93;2.63;;;;;;;3.78;100.00;103300.66;5005722;28;20210;-75
2023/01/22 09:17:59;;;;;;;6.50;2.13;;;;;;;3.80;100.00;103301.69;5000233;28;20876;-75
2023/01/22 09:20:25;;;;;;;9.87;2.70;;;;;;;3.84;100.00;103300.28;5006436;28;20781;-75
2023/01/22 09:22:50;;;;;;;9.03;2.50;;;;;;;3.85;100.00;103305.50;5007125;28;20207;-74
2023/01/22 09:25:16;;;;;;;6.53;2.60;;;;;;;3.88;100.00;103304.88;5000098;28;20191;-75
2023/01/22 09:27:41;;;;;;;6.67;2.57;;;;;;;3.92;100.00;103306.91;4999388;28;20274;-75
2023/01/22 09:30:09;;;;;;;7.73;2.50;;;;;;;3.96;100.00;103306.41;5002337;28;20564;-75
2023/01/22 09:32:35;;;;;;;8.60;3.27;;;;;;;3.97;100.00;103309.09;5001788;28;20693;-75
2023/01/22 09:35:01;;;;;;;7.17;2.07;;;;;;;4.01;100.00;103306.03;5005058;28;20277;-75
2023/01/22 09:37:26;;;;;;;6.20;2.47;;;;;;;4.05;100.00;103304.66;5014401;28;20196;-75
2023/01/22 09:39:52;;;;;;;8.23;2.40;;;;;;;4.07;100.00;103298.97;5002938;28;20181;-75
2023/01/22 09:42:27;;;;;;;12.23;2.63;;;;;;;4.13;100.00;103298.56;5003122;28;20659;-74
2023/01/22 09:45:18;;;;;;;10.87;3.90;;;;;;;4.17;100.00;103304.03;5007767;28;20205;-74
2023/01/22 09:47:53;;;;;;;8.63;2.77;;;;;;;4.24;100.00;103295.31;5005920;28;20683;-74
2023/01/22 09:50:25;;;;;;;8.17;2.73;;;;;;;4.27;100.00;103304.06;5006095;28;20209;-74
2023/01/22 09:52:53;;;;;;;6.37;2.70;;;;;;;4.36;100.00;103298.84;5009658;28;20766;-76
2023/01/22 09:55:22;;;;;;;8.90;2.73;;;;;;;4.43;100.00;103302.06;5002653;28;20194;-76
2023/01/22 09:57:51;;;;;;;5.97;2.63;;;;;;;4.49;100.00;103302.56;4996211;28;20206;-76
2023/01/22 10:00:25;;;;;;;7.63;2.20;;;;;;;4.52;100.00;103295.19;5005764;28;20188;-75
2023/01/22 10:03:17;;;;;;;6.43;2.50;;;;;;;4.60;100.00;103305.97;5007550;28;20206;-76
2023/01/22 10:06:10;;;;;;;12.77;2.80;;;;;;;4.66;100.00;103304.84;5008653;28;20718;-75
2023/01/22 10:09:18;;;;;;;10.40;2.20;;;;;;;4.71;100.00;103301.03;5007885;28;20290;-76
2023/01/22 10:11:51;;;;;;;8.77;2.60;;;;;;;4.78;100.00;103298.22;5004085;28;20695;-76
2023/01/22 10:14:20;;;;;;;7.97;2.00;;;;;;;4.82;100.00;103297.72;5010572;28;20215;-76
2023/01/22 10:16:46;;;;;;;9.00;2.47;;;;;;;4.89;100.00;103301.63;4999917;28;20198;-76
2023/01/22 10:19:24;;;;;;;8.13;2.27;;;;;;;4.97;100.00;103295.53;5000875;28;20194;-75
2023/01/22 10:22:06;;;;;;;7.87;2.27;;;;;;;5.09;100.00;103296.50;5001449;28;20225;-75
2023/01/22 10:24:31;;;;;;;5.03;2.27;;;;;;;5.14;100.00;103295.22;5016537;28;20216;-76
2023/01/22 10:27:08;;;;;;;8.33;2.30;;;;;;;5.14;100.00;103302.84;5003433;28;20183;-75
2023/01/22 10:29:35;;;;;;;7.47;2.23;;;;;;;5.20;100.00;103288.97;5007466;28;20225;-75
2023/01/22 10:32:19;;;;;;;7.97;2.40;;;;;;;5.24;100.00;103297.72;5001190;28;20197;-76
2023/01/22 10:35:14;;;;;;;5.93;2.30;;;;;;;5.35;100.00;103285.13;5004905;28;20191;-76
2023/01/22 10:37:48;;;;;;;3.47;1.80;;;;;;;5.39;100.00;103282.06;4999610;28;20195;-76
2023/01/22 10:40:22;;;;;;;4.50;2.40;;;;;;;5.50;100.00;103283.81;5004518;28;20199;-76
2023/01/22 10:43:11;;;;;;;7.73;2.27;;;;;;;5.49;100.00;103284.56;5001716;28;20218;-76
2023/01/22 10:46:00;;;;;;;10.23;2.33;;;;;;;5.55;100.00;103277.44;5002772;28;20180;-75
2023/01/22 10:48:26;;;;;;;5.37;1.57;;;;;;;5.59;100.00;103276.91;5009181;28;20198;-76
2023/01/22 10:51:16;;;;;;;7.43;2.30;;;;;;;5.65;100.00;103281.56;5013465;28;20210;-75
2023/01/22 10:53:53;;;;;;;7.80;3.53;;;;;;;5.69;100.00;103274.31;5005319;28;20632;-75
2023/01/22 10:56:34;;;;;;;7.63;2.60;;;;;;;5.72;100.00;103281.28;5008186;28;20198;-76
2023/01/22 10:59:15;;;;;;;8.13;2.43;;;;;;;5.80;100.00;103276.03;5002655;28;20322;-76
2023/01/22 11:01:43;;;;;;;11.57;3.53;;;;;;;5.76;100.00;103273.13;5004365;28;20199;-75
2023/01/22 11:04:24;;;;;;;10.00;2.53;;;;;;;5.77;100.00;103270.72;5010400;28;20207;-75
2023/01/22 11:06:53;;;;;;;6.03;2.20;;;;;;;5.83;100.00;103270.31;5007639;28;20201;-76
2023/01/22 11:09:34;;;;;;;4.37;2.30;;;;;;;5.80;100.00;103268.41;5003509;28;20277;-75
2023/01/22 11:12:14;;;;;;;6.10;2.10;;;;;;;5.74;100.00;103269.56;5021663;28;20264;-75
2023/01/22 11:14:40;;;;;;;12.60;3.00;;;;;;;5.74;100.00;103267.91;5006026;28;20838;-75
2023/01/22 11:17:21;;;;;;;5.83;2.50;;;;;;;5.83;100.00;103266.13;5004784;28;20198;-76
2023/01/22 11:20:11;;;;;;;10.53;5.23;;;;;;;5.89;100.00;103263.19;5004520;28;20355;-76
2023/01/22 11:22:39;;;;;;;9.23;3.23;;;;;;;5.87;100.00;103263.06;5001915;28;20333;-76
2023/01/22 11:25:09;;;;;;;7.23;3.20;;;;;;;5.83;100.00;103262.69;5008674;28;20190;-76
2023/01/22 11:27:50;;;;;;;13.17;3.77;;;;;;;5.71;100.00;103265.13;5001896;28;21142;-75
2023/01/22 11:30:33;;;;;;;18.93;8.53;;;;;;;5.75;100.00;103264.59;5007100;28;20691;-74
2023/01/22 11:33:24;;;;;;;7.93;3.07;;;;;;;5.77;100.00;103264.72;4994773;28;20219;-75
2023/01/22 11:36:09;;;;;;;8.27;4.10;;;;;;;5.73;100.00;103255.09;5006031;28;20191;-74
2023/01/22 11:38:39;;;;;;;12.57;5.60;;;;;;;5.75;100.00;103259.53;5003828;28;20273;-76
2023/01/22 11:41:08;;;;;;;6.53;2.30;;;;;;;5.73;100.00;103258.53;5006053;28;20197;-76